< < Back
Terminal Aerodrome Forecast


Current Version              Previous Versions:   1  2  3  4  5  6  7  8  9  

Terminal Aerodrome Forecast

201
FTUS42 KCHS 241700
TAFCHS
TAF
KCHS 241732Z 2418/2518 12012G18KT P6SM SCT035
     FM242300 13007KT P6SM SCT040
     FM250800 16006KT P6SM SCT020 BKN035
     FM251400 21013G19KT P6SM SCT040=

Latest METAR

428
SAUS80 KWBC 250000 RRB
MTRCHS
METAR KCHS 242356Z 08006KT 10SM FEW040 19/13 A3000 RMK AO2 SLP159
T01940133 10250 20194 58002


USA.gov is the U.S. government's official web portal to all federal, state and local government web resources and services.